Tavares, FL

7:58 PM EST on February 07, 2016 (GMT -0500)
APRSWXNET | | Change Station
CLOSE
Current Station
Personal Weather Station
Location: Tavares, FL
Elevation: 112 ft
Nearby Weather Stations

Elev 112 ft 28.75 °N, 81.76 °W | Updated 25 minutes ago

Clear
Clear
53 °F
Feels Like 53 °F
N
4
Wind Variable Wind from NW
Gusts 0.0 mph

Today
High -- | Low -- °F
--% Chance of Precip.
Yesterday
High -- | Low -- °F
Precip. -- in
Pressure 30.06 in
Visibility 10.0 miles
Clouds Clear
Dew Point 29 °F
Humidity 40%
Rainfall in
Snow Depth Not available.
7:11 AM 6:10 PM
Waning Crescent, 0% visible
METAR KLEE 080053Z AUTO 27005KT 10SM CLR 11/M01 A3006 RMK AO2 SLP178 T01061006
Pressure 30.06 in
Visibility 10.0 miles
Clouds Clear
Dew Point 29 °F
Humidity 40%
Rainfall in
Snow Depth Not available.
7:11 AM 6:10 PM
Waning Crescent, 0% visible
METAR KLEE 080053Z AUTO 27005KT 10SM CLR 11/M01 A3006 RMK AO2 SLP178 T01061006

10-Day Weather Forecast

Almanac

Astronomy

Feb. 07, 2016 Rise Set
Actual Time
Civil Twilight
Nautical Twilight
Astronomical Twilight
Moon
Length of Visible Light
Length of Day
Tomorrow will be .
, % of the Moon is Illuminated

Today's Extremes

State Highs State Lows

Community

WunderPhotos

Upload Photos

1,891,339 photos uploaded!

WunderBlog® & News

Nearby

Air Quality

  Air Quality AQ Index Pollutant
Not available.

Snow Depth

Station Depth Elevation

Earthquake Activity

City Distance Mag. Time & Date
Minimum magnitude displayed is 2.5.

Coastal Water Temperatures

Place Temperature

Stations

Nearby Weather Stations

Station Location Temp. Windchill Dew Point Humidity Wind Precip. Elev Updated Type
                   

Watches & Warnings

There are currently no watches in effect.